Time;durP1;ratioP1;P1;durP2;ratioP2;P2;SDS_P1;SDS_P2;PMS_P1;PMS_P2;Temp;Humidity;BMP_temperature;BMP_pressure;BME280_temperature;BME280_humidity;BME280_pressure;Samples;Min_cycle;Max_cycle;Signal;HPM_P1;HPM_P2
2024/03/23 00:00:19;;;;;;;42.40;22.20;;;8.50;1.00;;;;;;4446328;27;659412;-68
2024/03/23 00:03:11;;;;;;;41.30;20.50;;;8.50;1.00;;;;;;4448347;27;658091;-69
2024/03/23 00:06:01;;;;;;;41.47;20.47;;;8.50;1.00;;;;;;4432310;27;657642;-69
2024/03/23 00:08:52;;;;;;;56.37;22.47;;;8.50;1.00;;;;;;4451290;27;657676;-68
2024/03/23 00:11:42;;;;;;;42.93;19.90;;;8.40;1.00;;;;;;4451683;27;658667;-68
2024/03/23 00:14:33;;;;;;;40.77;19.47;;;8.50;1.00;;;;;;4459109;27;658047;-68
2024/03/23 00:17:23;;;;;;;48.73;21.20;;;8.50;1.00;;;;;;4451681;27;658532;-69
2024/03/23 00:20:14;;;;;;;42.90;20.33;;;8.50;1.00;;;;;;4453427;27;659141;-69
2024/03/23 00:23:04;;;;;;;46.10;21.80;;;8.30;99.90;;;;;;4449294;27;658487;-69
2024/03/23 00:25:55;;;;;;;49.20;22.50;;;8.30;99.90;;;;;;4450692;27;658620;-69
2024/03/23 00:28:45;;;;;;;46.63;22.03;;;8.30;99.90;;;;;;4447294;27;658638;-68
2024/03/23 00:31:36;;;;;;;51.07;22.73;;;8.30;27.00;;;;;;4451644;27;658968;-68
2024/03/23 00:34:26;;;;;;;47.73;21.83;;;8.20;99.90;;;;;;4455921;27;658597;-68
2024/03/23 00:37:17;;;;;;;43.20;19.67;;;8.20;99.90;;;;;;4452181;27;658350;-68
2024/03/23 00:40:07;;;;;;;43.13;20.30;;;8.10;99.90;;;;;;4449354;27;659418;-68
2024/03/23 00:42:58;;;;;;;43.77;19.97;;;8.10;99.90;;;;;;4450559;27;659832;-68
2024/03/23 00:45:48;;;;;;;40.07;18.93;;;8.00;99.90;;;;;;4450000;27;659088;-68
2024/03/23 00:48:39;;;;;;;41.50;19.83;;;8.10;99.90;;;;;;4449023;27;659507;-68
2024/03/23 00:51:29;;;;;;;47.93;21.30;;;8.10;99.90;;;;;;4448189;27;659142;-68
2024/03/23 00:54:17;;;;;;;45.23;20.30;;;8.20;1.00;;;;;;4447170;27;659225;-68
2024/03/23 00:57:04;;;;;;;43.30;18.17;;;8.20;1.00;;;;;;4456407;27;658813;-68
2024/03/23 00:59:51;;;;;;;42.97;20.00;;;8.30;1.00;;;;;;4468399;27;658661;-68
2024/03/23 01:02:37;;;;;;;44.80;18.77;;;8.30;1.00;;;;;;4453625;27;658107;-68
2024/03/23 01:05:24;;;;;;;44.37;19.87;;;8.20;99.90;;;;;;4472018;27;657972;-68
2024/03/23 01:08:10;;;;;;;41.30;19.43;;;8.10;99.90;;;;;;4469401;27;658656;-68
2024/03/23 01:11:00;;;;;;;38.95;18.48;;;8.10;1.00;;;;;;4450511;27;659221;-68
2024/03/23 01:13:46;;;;;;;46.10;18.37;;;8.10;1.00;;;;;;4471670;27;657652;-68
2024/03/23 01:16:33;;;;;;;44.47;19.33;;;8.20;1.00;;;;;;4451182;27;657719;-69
2024/03/23 01:19:19;;;;;;;49.27;19.60;;;8.20;1.00;;;;;;4467939;27;658162;-69
2024/03/23 01:22:07;;;;;;;35.53;16.60;;;8.20;1.00;;;;;;4473960;27;657126;-69
2024/03/23 01:24:53;;;;;;;38.37;17.67;;;8.10;1.00;;;;;;4454644;27;658261;-69
2024/03/23 01:27:41;;;;;;;39.70;17.07;;;8.10;1.00;;;;;;4468319;27;658608;-69
2024/03/23 01:30:27;;;;;;;42.37;16.97;;;8.20;99.90;;;;;;4454578;27;657486;-69
2024/03/23 01:33:15;;;;;;;37.77;16.63;;;8.00;1.00;;;;;;4470414;27;659856;-69
2024/03/23 01:36:01;;;;;;;33.67;16.07;;;8.00;1.00;;;;;;4469345;27;657546;-69
2024/03/23 01:38:49;;;;;;;38.90;16.97;;;8.00;99.90;;;;;;4472955;27;657676;-70
2024/03/23 01:41:36;;;;;;;41.37;17.83;;;8.10;1.00;;;;;;4470980;27;659130;-69
2024/03/23 01:44:24;;;;;;;34.83;16.67;;;8.10;1.00;;;;;;4452631;27;657661;-69
2024/03/23 01:47:10;;;;;;;38.65;16.48;;;8.00;1.00;;;;;;4478174;27;658176;-70
2024/03/23 01:49:58;;;;;;;36.37;17.17;;;8.00;99.90;;;;;;4449180;27;657941;-69
2024/03/23 01:52:44;;;;;;;37.10;17.07;;;8.00;1.00;;;;;;4474530;27;659652;-69
2024/03/23 01:55:31;;;;;;;40.20;16.30;;;8.00;99.90;;;;;;4481730;27;657732;-69
2024/03/23 01:58:17;;;;;;;36.38;16.88;;;7.90;99.90;;;;;;4448787;27;658669;-69
2024/03/23 02:01:06;;;;;;;34.87;17.00;;;7.90;1.00;;;;;;4466741;28;659122;-69
2024/03/23 02:03:52;;;;;;;32.27;15.77;;;7.90;1.00;;;;;;4445695;27;658671;-69
2024/03/23 02:06:39;;;;;;;33.93;16.60;;;7.90;1.00;;;;;;4477984;27;657227;-69
2024/03/23 02:09:26;;;;;;;36.30;16.33;;;7.70;1.00;;;;;;4467839;27;658304;-69
2024/03/23 02:12:13;;;;;;;36.10;16.17;;;7.80;1.00;;;;;;4450040;27;657853;-69
2024/03/23 02:14:59;;;;;;;40.67;17.97;;;7.70;1.00;;;;;;4470261;28;658146;-69
2024/03/23 02:17:47;;;;;;;35.43;16.50;;;7.90;1.00;;;;;;4475158;28;657892;-69
2024/03/23 02:20:34;;;;;;;33.67;15.70;;;7.80;1.00;;;;;;4440583;28;658404;-69
2024/03/23 02:23:24;;;;;;;32.90;16.70;;;7.80;1.00;;;;;;4469200;28;658303;-69
2024/03/23 02:26:10;;;;;;;31.93;14.20;;;7.70;1.00;;;;;;4448011;28;657823;-69
2024/03/23 02:28:57;;;;;;;32.40;15.77;;;7.80;1.00;;;;;;4459025;28;657675;-69
2024/03/23 02:31:44;;;;;;;31.90;15.30;;;7.80;1.00;;;;;;4469512;28;658141;-69
2024/03/23 02:34:31;;;;;;;30.83;14.37;;;7.80;1.00;;;;;;4464092;28;657610;-70
2024/03/23 02:37:17;;;;;;;35.43;15.43;;;7.80;99.90;;;;;;4443649;28;657968;-69
2024/03/23 02:40:06;;;;;;;29.53;14.43;;;7.80;1.00;;;;;;4475006;28;658721;-69
2024/03/23 02:42:52;;;;;;;31.08;13.65;;;7.90;1.00;;;;;;4453008;27;657934;-69
2024/03/23 02:45:40;;;;;;;32.80;15.27;;;8.00;1.00;;;;;;4472665;27;658666;-69
2024/03/23 02:48:27;;;;;;;31.70;14.90;;;7.90;1.00;;;;;;4474399;27;657414;-69
2024/03/23 02:51:14;;;;;;;29.35;14.90;;;7.80;1.00;;;;;;4474028;27;658281;-69
2024/03/23 02:54:01;;;;;;;33.17;15.20;;;7.70;1.00;;;;;;4479687;27;657907;-69
2024/03/23 02:56:48;;;;;;;28.17;14.10;;;7.70;1.00;;;;;;4455034;27;658465;-69
2024/03/23 02:59:36;;;;;;;30.17;14.10;;;7.70;1.00;;;;;;4469625;27;657129;-69
2024/03/23 03:02:22;;;;;;;42.23;18.23;;;7.70;1.00;;;;;;4455912;27;658006;-69
2024/03/23 03:05:10;;;;;;;35.73;15.27;;;7.70;99.90;;;;;;4478235;27;658318;-69
2024/03/23 03:07:57;;;;;;;36.50;16.17;;;7.70;99.90;;;;;;4449572;27;658664;-69
2024/03/23 03:10:44;;;;;;;42.63;18.83;;;7.60;1.00;;;;;;4476950;27;659149;-70
2024/03/23 03:13:32;;;;;;;36.47;16.03;;;7.60;1.00;;;;;;4478085;27;658038;-70
2024/03/23 03:16:19;;;;;;;51.40;20.53;;;7.50;1.00;;;;;;4448827;27;658431;-69
2024/03/23 03:19:06;;;;;;;36.57;15.23;;;7.60;1.00;;;;;;4475911;27;657712;-69
2024/03/23 03:21:53;;;;;;;41.17;16.50;;;7.60;99.90;;;;;;4453164;27;657889;-69
2024/03/23 03:24:39;;;;;;;33.07;15.93;;;7.60;16.90;;;;;;4382243;27;658823;-70
2024/03/23 03:27:26;;;;;;;32.50;15.83;;;7.60;1.00;;;;;;4368656;27;658612;-69
2024/03/23 03:30:14;;;;;;;34.40;14.90;;;7.70;99.90;;;;;;4348508;27;657872;-70
2024/03/23 03:33:01;;;;;;;44.23;17.57;;;7.70;99.90;;;;;;4402033;27;659795;-70
2024/03/23 03:35:48;;;;;;;41.90;18.07;;;7.70;1.00;;;;;;4453008;27;658790;-70
2024/03/23 03:38:35;;;;;;;40.53;17.63;;;7.70;1.00;;;;;;4465992;27;658575;-70
2024/03/23 03:41:21;;;;;;;38.40;16.63;;;7.60;99.90;;;;;;4456054;27;657559;-69
2024/03/23 03:44:09;;;;;;;37.80;16.73;;;7.60;1.00;;;;;;4475920;27;659159;-69
2024/03/23 03:46:56;;;;;;;42.30;17.57;;;7.50;1.00;;;;;;4472994;27;658681;-69
2024/03/23 03:49:43;;;;;;;41.27;18.53;;;7.50;1.00;;;;;;4452875;27;657799;-69
2024/03/23 03:52:29;;;;;;;31.10;15.98;;;7.50;81.20;;;;;;4467942;27;658334;-69
2024/03/23 03:55:17;;;;;;;33.97;16.33;;;7.50;99.90;;;;;;4467339;27;658624;-69
2024/03/23 03:58:04;;;;;;;35.00;15.40;;;7.50;99.90;;;;;;4452795;27;659701;-69
2024/03/23 04:00:51;;;;;;;30.53;15.50;;;7.60;1.00;;;;;;4466265;27;659010;-68
2024/03/23 04:03:43;;;;;;;35.93;17.30;;;7.50;1.00;;;;;;4456386;27;657590;-68
2024/03/23 04:06:30;;;;;;;46.47;19.27;;;7.50;1.00;;;;;;4450124;27;658174;-68
2024/03/23 04:09:16;;;;;;;38.50;17.43;;;7.50;99.90;;;;;;4452774;27;658302;-68
2024/03/23 04:12:04;;;;;;;29.87;14.60;;;7.40;1.00;;;;;;4473848;27;658231;-69
2024/03/23 04:14:50;;;;;;;33.03;15.30;;;7.50;1.00;;;;;;4470307;27;657773;-68
2024/03/23 04:17:37;;;;;;;36.87;17.83;;;7.40;7.90;;;;;;4453654;27;657658;-68
2024/03/23 04:20:25;;;;;;;41.67;19.30;;;7.30;99.90;;;;;;4468687;27;658228;-68
2024/03/23 04:23:12;;;;;;;48.30;20.57;;;7.30;1.00;;;;;;4459764;27;660243;-68
2024/03/23 04:26:03;;;;;;;53.50;23.03;;;7.30;1.00;;;;;;4479777;27;658534;-68
2024/03/23 04:28:50;;;;;;;43.20;20.30;;;7.30;99.90;;;;;;4444564;27;658597;-68
2024/03/23 04:31:36;;;;;;;46.88;21.65;;;7.20;1.00;;;;;;4448631;27;658782;-68
2024/03/23 04:34:24;;;;;;;45.13;21.07;;;7.20;99.90;;;;;;4476485;27;657340;-68
2024/03/23 04:37:12;;;;;;;60.83;26.30;;;7.30;99.90;;;;;;4474692;27;659101;-68
2024/03/23 04:39:59;;;;;;;67.77;28.03;;;7.20;99.90;;;;;;4453658;27;660179;-68
2024/03/23 04:42:47;;;;;;;51.97;23.13;;;7.30;99.90;;;;;;4469869;27;659011;-68
2024/03/23 04:45:34;;;;;;;44.60;20.70;;;7.20;1.00;;;;;;4444506;27;659193;-68
2024/03/23 04:48:22;;;;;;;46.57;22.43;;;7.10;99.90;;;;;;4469783;27;657458;-69
2024/03/23 04:51:09;;;;;;;58.67;25.97;;;7.10;1.00;;;;;;4451505;27;658808;-69
2024/03/23 04:53:57;;;;;;;80.70;33.30;;;7.10;1.00;;;;;;4477071;27;657129;-68
2024/03/23 04:56:45;;;;;;;70.27;31.20;;;7.20;1.00;;;;;;4460810;27;657828;-68
2024/03/23 04:59:31;;;;;;;85.60;35.50;;;7.20;1.00;;;;;;4466282;27;657600;-69
2024/03/23 05:02:18;;;;;;;83.53;34.77;;;7.20;1.00;;;;;;4473473;27;658066;-69
2024/03/23 05:05:07;;;;;;;76.53;33.73;;;7.20;1.00;;;;;;4455033;28;657826;-69
2024/03/23 05:07:54;;;;;;;76.97;35.40;;;7.20;1.00;;;;;;4429750;28;658293;-69
2024/03/23 05:10:42;;;;;;;83.90;37.03;;;7.20;6.10;;;;;;4455750;28;657671;-68
2024/03/23 05:13:29;;;;;;;58.10;25.80;;;7.20;6.20;;;;;;4442212;28;657979;-69
2024/03/23 05:16:16;;;;;;;62.40;27.93;;;7.10;61.10;;;;;;4449321;28;657438;-69
2024/03/23 05:19:03;;;;;;;80.20;33.70;;;7.10;99.90;;;;;;4438638;28;658675;-69
2024/03/23 05:21:49;;;;;;;89.13;37.80;;;7.20;99.90;;;;;;4455060;28;660267;-69
2024/03/23 05:24:36;;;;;;;89.33;36.60;;;7.30;99.90;;;;;;4452577;28;659122;-69
2024/03/23 05:27:24;;;;;;;85.73;38.43;;;7.30;99.90;;;;;;4431084;28;658752;-69
2024/03/23 05:30:12;;;;;;;52.50;25.20;;;7.30;99.90;;;;;;4456010;28;658503;-69
2024/03/23 05:32:58;;;;;;;58.73;26.10;;;7.40;99.90;;;;;;4434737;28;658325;-69
2024/03/23 05:35:45;;;;;;;75.37;33.77;;;7.40;99.90;;;;;;4452741;28;659882;-69
2024/03/23 05:38:31;;;;;;;94.03;35.60;;;7.30;99.90;;;;;;4449766;28;658952;-69
2024/03/23 05:41:19;;;;;;;87.03;33.13;;;7.20;99.90;;;;;;4463157;28;658280;-69
2024/03/23 05:44:06;;;;;;;120.43;42.27;;;7.20;99.90;;;;;;4455900;28;659250;-69
2024/03/23 05:46:53;;;;;;;130.67;47.13;;;7.20;1.00;;;;;;4432296;28;660055;-69
2024/03/23 05:49:41;;;;;;;166.57;53.63;;;7.20;1.00;;;;;;4451004;28;660034;-70
2024/03/23 05:52:28;;;;;;;243.80;73.97;;;7.40;1.00;;;;;;4429146;28;658468;-69
2024/03/23 05:55:14;;;;;;;162.13;54.43;;;7.50;1.00;;;;;;4453630;28;659959;-69
2024/03/23 05:58:02;;;;;;;146.43;48.37;;;7.60;1.00;;;;;;4458230;28;659285;-69
2024/03/23 06:00:49;;;;;;;115.77;42.00;;;7.60;1.00;;;;;;4435194;28;658185;-69
2024/03/23 06:03:36;;;;;;;125.93;44.42;;;7.70;1.00;;;;;;4461962;27;658842;-69
2024/03/23 06:06:23;;;;;;;154.03;52.50;;;7.70;1.00;;;;;;4438731;28;658355;-69
2024/03/23 06:09:10;;;;;;;146.83;51.80;;;7.70;1.00;;;;;;4463034;27;659608;-69
2024/03/23 06:11:57;;;;;;;174.87;56.30;;;7.70;1.00;;;;;;4448059;27;658390;-69
2024/03/23 06:14:44;;;;;;;157.43;53.90;;;7.70;1.00;;;;;;4468596;28;658873;-69
2024/03/23 06:17:33;;;;;;;153.90;51.37;;;7.70;1.00;;;;;;4472081;27;658984;-70
2024/03/23 06:20:20;;;;;;;142.63;51.07;;;7.80;1.00;;;;;;4448207;27;659725;-69
2024/03/23 06:23:07;;;;;;;140.67;48.90;;;7.90;1.00;;;;;;4468988;27;659348;-69
2024/03/23 06:25:54;;;;;;;134.20;47.00;;;7.90;1.00;;;;;;4478793;27;658388;-69
2024/03/23 06:28:40;;;;;;;95.43;37.97;;;7.90;1.00;;;;;;4473046;27;659201;-69
2024/03/23 06:31:28;;;;;;;71.13;32.00;;;8.00;1.00;;;;;;4468705;27;657936;-69
2024/03/23 06:34:15;;;;;;;114.13;45.20;;;8.00;1.00;;;;;;4470802;27;658070;-69
2024/03/23 06:37:03;;;;;;;75.43;32.83;;;8.10;1.00;;;;;;4459427;27;658313;-69
2024/03/23 06:39:49;;;;;;;76.53;33.17;;;8.10;1.00;;;;;;4476886;27;658620;-69
2024/03/23 06:42:36;;;;;;;65.63;30.20;;;8.20;1.00;;;;;;4476629;27;657631;-69
2024/03/23 06:45:23;;;;;;;88.00;35.40;;;8.40;1.00;;;;;;4455282;27;658066;-69
2024/03/23 06:48:10;;;;;;;76.10;32.43;;;8.40;1.00;;;;;;4475855;27;659108;-69
2024/03/23 06:50:58;;;;;;;98.17;39.10;;;8.50;99.90;;;;;;4472918;27;657819;-69
2024/03/23 06:53:45;;;;;;;106.13;41.63;;;8.60;99.90;;;;;;4484137;27;659661;-69
2024/03/23 06:56:31;;;;;;;99.78;42.15;;;8.70;99.90;;;;;;4461561;27;660629;-69
2024/03/23 06:59:19;;;;;;;114.97;45.57;;;8.90;99.90;;;;;;4480192;27;658679;-69
2024/03/23 07:02:05;;;;;;;129.03;50.30;;;9.00;99.90;;;;;;4475298;27;660892;-69
2024/03/23 07:04:53;;;;;;;125.47;47.33;;;9.00;99.90;;;;;;4452932;27;660942;-69
2024/03/23 07:07:40;;;;;;;93.20;41.53;;;9.10;99.90;;;;;;4471665;27;660341;-68
2024/03/23 07:10:27;;;;;;;98.65;43.85;;;9.40;99.90;;;;;;4455175;27;660026;-71
2024/03/23 07:13:14;;;;;;;104.90;43.47;;;9.50;1.00;;;;;;4368331;27;658266;-71
2024/03/23 07:16:01;;;;;;;93.73;40.43;;;9.60;1.00;;;;;;4373166;27;658741;-69
2024/03/23 07:18:47;;;;;;;96.40;41.80;;;9.80;1.00;;;;;;4348413;27;657545;-69
2024/03/23 07:21:34;;;;;;;81.20;40.07;;;10.00;99.90;;;;;;4388775;27;657509;-69
2024/03/23 07:24:22;;;;;;;73.90;34.37;;;10.20;99.90;;;;;;4465968;27;659405;-68
2024/03/23 07:27:10;;;;;;;61.00;29.77;;;10.20;99.90;;;;;;4447888;27;661062;-69
2024/03/23 07:29:56;;;;;;;61.70;32.40;;;10.10;99.90;;;;;;4379316;27;659926;-69
2024/03/23 07:32:45;;;;;;;64.93;33.17;;;10.30;1.00;;;;;;4466210;27;659290;-69
2024/03/23 07:35:31;;;;;;;82.73;39.17;;;10.50;1.00;;;;;;4454735;27;660440;-69
2024/03/23 07:38:19;;;;;;;65.97;35.23;;;10.70;1.00;;;;;;4450747;27;658430;-69
2024/03/23 07:41:07;;;;;;;65.00;34.00;;;10.70;30.30;;;;;;4461972;27;658776;-68
2024/03/23 07:43:54;;;;;;;65.33;33.50;;;10.60;1.00;;;;;;4453914;27;659593;-69
2024/03/23 07:46:41;;;;;;;58.27;30.67;;;10.60;1.00;;;;;;4472140;27;659252;-69
2024/03/23 07:49:28;;;;;;;56.53;29.00;;;10.50;99.90;;;;;;4453886;27;658933;-69
2024/03/23 07:52:14;;;;;;;54.43;29.00;;;10.60;25.00;;;;;;4470827;27;660398;-68
2024/03/23 07:55:02;;;;;;;61.50;29.80;;;10.80;1.00;;;;;;4423725;27;659973;-69
2024/03/23 07:57:51;;;;;;;57.07;27.37;;;11.40;99.90;;;;;;4439348;27;658992;-68
2024/03/23 08:00:38;;;;;;;49.73;25.47;;;11.90;1.00;;;;;;4451150;27;660553;-68
2024/03/23 08:03:24;;;;;;;40.43;20.07;;;12.10;99.90;;;;;;4468768;27;659739;-68
2024/03/23 08:06:12;;;;;;;37.33;17.43;;;12.30;99.90;;;;;;4472528;27;659542;-68
2024/03/23 08:09:02;;;;;;;32.53;17.83;;;12.40;1.00;;;;;;4447676;27;660588;-68
2024/03/23 08:11:48;;;;;;;34.00;17.07;;;12.60;1.00;;;;;;4460364;27;659859;-68
2024/03/23 08:14:37;;;;;;;33.60;14.70;;;12.70;99.90;;;;;;4471878;27;659234;-68
2024/03/23 08:17:23;;;;;;;27.37;15.00;;;12.70;25.10;;;;;;4448240;27;661525;-68
2024/03/23 08:20:11;;;;;;;34.80;15.33;;;12.80;1.00;;;;;;4475899;27;660352;-68
2024/03/23 08:22:57;;;;;;;36.35;17.10;;;12.80;99.90;;;;;;4443146;27;658117;-70
2024/03/23 08:25:45;;;;;;;31.47;14.90;;;12.80;99.90;;;;;;4465256;27;660691;-70
2024/03/23 08:28:31;;;;;;;29.83;16.70;;;12.60;6.30;;;;;;4464709;27;659664;-70
2024/03/23 08:31:20;;;;;;;36.30;18.80;;;12.70;99.90;;;;;;4470418;27;658491;-70
2024/03/23 08:34:06;;;;;;;37.08;15.90;;;12.70;1.00;;;;;;4457494;27;660000;-68
2024/03/23 08:36:54;;;;;;;32.97;16.47;;;13.10;1.00;;;;;;4474276;27;658521;-68
2024/03/23 08:39:40;;;;;;;37.40;18.77;;;13.40;99.90;;;;;;4472962;27;659608;-68
2024/03/23 08:42:27;;;;;;;32.43;17.80;;;13.70;78.00;;;;;;4464162;27;659732;-68
2024/03/23 08:45:14;;;;;;;25.37;13.33;;;13.70;1.00;;;;;;4466989;27;660317;-68
2024/03/23 08:48:02;;;;;;;31.50;17.80;;;13.70;99.90;;;;;;4463192;27;660272;-68
2024/03/23 08:50:59;;;;;;;32.53;16.83;;;13.90;1.00;;;;;;4444114;27;660618;-71
2024/03/23 08:53:46;;;;;;;24.27;11.83;;;14.40;1.00;;;;;;4450097;27;659180;-67
2024/03/23 08:56:33;;;;;;;31.63;16.63;;;14.30;99.90;;;;;;4423074;27;659000;-70
2024/03/23 08:59:20;;;;;;;28.10;13.87;;;14.90;1.00;;;;;;4465356;27;661273;-70
2024/03/23 09:02:07;;;;;;;22.27;9.37;;;14.90;99.90;;;;;;4453416;27;659271;-72
2024/03/23 09:04:55;;;;;;;25.47;10.20;;;14.90;99.90;;;;;;4473872;27;658149;-70
2024/03/23 09:07:41;;;;;;;21.23;11.20;;;15.30;99.90;;;;;;4442926;27;659651;-70
2024/03/23 09:10:29;;;;;;;18.43;7.77;;;15.70;1.00;;;;;;4468681;27;660228;-69
2024/03/23 09:13:16;;;;;;;15.37;8.50;;;15.60;1.00;;;;;;4476279;27;659118;-70
2024/03/23 09:16:04;;;;;;;14.43;8.40;;;15.20;1.00;;;;;;4446614;27;658355;-71
2024/03/23 09:18:53;;;;;;;11.83;7.57;;;15.20;1.00;;;;;;4474971;27;657553;-71
2024/03/23 09:21:41;;;;;;;13.77;7.43;;;15.30;1.00;;;;;;4444729;27;657774;-70
2024/03/23 09:24:27;;;;;;;10.70;4.18;;;15.30;1.00;;;;;;4451619;27;658130;-70
2024/03/23 09:27:15;;;;;;;12.30;7.53;;;15.90;1.00;;;;;;4464657;27;657735;-70
2024/03/23 09:30:01;;;;;;;10.83;5.73;;;15.70;1.00;;;;;;4475026;27;658640;-70
2024/03/23 09:32:48;;;;;;;11.47;6.60;;;15.90;1.00;;;;;;4454986;27;657764;-69
2024/03/23 09:35:37;;;;;;;12.13;6.27;;;15.90;1.00;;;;;;4475207;27;658984;-69
2024/03/23 09:38:25;;;;;;;11.33;4.23;;;15.80;1.00;;;;;;4455997;27;658097;-69
2024/03/23 09:41:12;;;;;;;13.13;5.77;;;16.30;1.00;;;;;;4438841;27;657558;-71
2024/03/23 09:43:59;;;;;;;13.77;6.10;;;16.40;1.00;;;;;;4472250;27;658052;-70
2024/03/23 09:46:45;;;;;;;10.40;5.28;;;16.40;1.00;;;;;;4464132;27;657608;-69
2024/03/23 09:49:36;;;;;;;5.53;2.87;;;16.60;1.00;;;;;;4456022;27;657390;-70
2024/03/23 09:52:22;;;;;;;6.93;3.73;;;16.50;1.00;;;;;;4453020;27;656766;-70
2024/03/23 09:55:11;;;;;;;9.23;5.30;;;16.50;1.00;;;;;;4467723;27;656684;-70
2024/03/23 09:57:57;;;;;;;6.23;3.00;;;16.40;1.00;;;;;;4452654;27;656766;-70
2024/03/23 10:00:45;;;;;;;15.33;7.67;;;16.60;1.00;;;;;;4471585;27;656660;-70
2024/03/23 10:03:32;;;;;;;8.17;3.57;;;16.60;1.00;;;;;;4477958;27;657447;-70
2024/03/23 10:06:21;;;;;;;9.50;5.03;;;16.70;1.00;;;;;;4447453;27;656944;-70
2024/03/23 10:09:16;;;;;;;7.47;3.73;;;16.80;1.00;;;;;;4456692;27;656495;-70
2024/03/23 10:12:10;;;;;;;16.30;8.93;;;16.40;1.00;;;;;;4453698;27;656672;-71
2024/03/23 10:14:57;;;;;;;14.77;7.53;;;16.50;1.00;;;;;;4443322;27;657528;-70
2024/03/23 10:17:44;;;;;;;11.70;6.50;;;16.30;1.00;;;;;;4472969;28;657752;-70
2024/03/23 10:20:31;;;;;;;9.67;5.10;;;16.40;1.00;;;;;;4476784;28;657311;-70
2024/03/23 10:23:18;;;;;;;13.20;6.83;;;16.60;1.00;;;;;;4455897;28;657308;-70
2024/03/23 10:26:17;;;;;;;11.90;6.50;;;17.30;1.00;;;;;;4467763;28;658192;-72
2024/03/23 10:29:07;;;;;;;10.77;4.87;;;17.10;1.00;;;;;;4454936;28;657558;-70
2024/03/23 10:31:55;;;;;;;13.67;7.10;;;17.30;1.00;;;;;;4447782;28;658261;-69
2024/03/23 10:34:41;;;;;;;6.73;3.70;;;17.50;1.00;;;;;;4474082;28;657542;-69
2024/03/23 10:37:28;;;;;;;9.43;3.80;;;17.10;1.00;;;;;;4449528;28;656760;-70
2024/03/23 10:40:14;;;;;;;14.07;7.43;;;16.80;1.00;;;;;;4473013;28;657481;-71
2024/03/23 10:43:01;;;;;;;10.93;6.57;;;17.20;1.00;;;;;;4466250;28;657684;-70
2024/03/23 10:45:49;;;;;;;12.27;5.50;;;17.90;1.00;;;;;;4452111;28;658728;-70
2024/03/23 10:48:36;;;;;;;16.77;6.70;;;18.10;1.00;;;;;;4467144;28;656933;-70
2024/03/23 10:51:22;;;;;;;10.30;5.17;;;18.60;1.00;;;;;;4451557;28;657972;-70
2024/03/23 10:54:13;;;;;;;8.10;4.90;;;18.80;1.00;;;;;;4471845;28;657189;-69
2024/03/23 10:57:03;;;;;;;9.93;5.60;;;19.20;1.00;;;;;;4448818;28;657762;-69
2024/03/23 10:59:50;;;;;;;10.93;4.10;;;18.80;1.00;;;;;;4453901;28;657328;-69
2024/03/23 11:02:38;;;;;;;10.40;5.77;;;18.50;1.00;;;;;;4455103;28;657582;-70
2024/03/23 11:05:31;;;;;;;10.57;5.47;;;18.10;1.00;;;;;;4470156;27;658225;-69
2024/03/23 11:08:31;;;;;;;8.90;4.67;;;18.30;1.00;;;;;;4433046;27;658770;-69
2024/03/23 11:11:18;;;;;;;8.23;3.73;;;18.40;1.00;;;;;;4451560;27;656697;-69
2024/03/23 11:14:05;;;;;;;5.73;3.03;;;18.70;1.00;;;;;;4478957;27;657041;-69
2024/03/23 11:17:08;;;;;;;7.17;4.20;;;18.80;1.00;;;;;;4451841;27;656918;-69
2024/03/23 11:19:57;;;;;;;3.00;1.60;;;18.60;1.00;;;;;;4450632;27;656945;-69
2024/03/23 11:22:44;;;;;;;8.57;4.30;;;18.90;1.00;;;;;;4458025;27;656870;-69
2024/03/23 11:25:31;;;;;;;6.20;3.43;;;18.90;1.00;;;;;;4478225;27;656363;-68
2024/03/23 11:28:17;;;;;;;9.47;4.40;;;19.30;1.00;;;;;;4451945;27;657062;-69
2024/03/23 11:31:11;;;;;;;8.20;4.50;;;18.70;1.00;;;;;;4473633;27;656392;-70
2024/03/23 11:34:03;;;;;;;4.23;2.20;;;18.60;1.00;;;;;;4425417;27;657357;-71
2024/03/23 11:36:52;;;;;;;6.33;3.53;;;18.50;1.00;;;;;;4371412;27;657268;-69
2024/03/23 11:39:38;;;;;;;7.47;3.70;;;18.50;1.00;;;;;;4352078;27;657711;-69
2024/03/23 11:42:25;;;;;;;8.50;3.30;;;18.90;1.00;;;;;;4377399;27;656850;-70
2024/03/23 11:45:14;;;;;;;7.13;4.10;;;19.30;1.00;;;;;;4367162;27;656852;-69
2024/03/23 11:48:05;;;;;;;7.97;4.43;;;19.40;1.00;;;;;;4478028;27;656137;-68
2024/03/23 11:50:58;;;;;;;6.53;3.33;;;19.10;1.00;;;;;;4433483;27;656437;-68
2024/03/23 11:53:46;;;;;;;7.60;4.73;;;19.50;1.00;;;;;;4454950;27;657320;-68
2024/03/23 11:56:33;;;;;;;7.07;3.43;;;19.60;1.00;;;;;;4452339;27;657022;-69
2024/03/23 11:59:31;;;;;;;6.90;3.33;;;19.50;1.00;;;;;;4479734;27;657824;-68
2024/03/23 12:02:19;;;;;;;5.70;2.30;;;19.80;1.00;;;;;;4433247;27;657285;-67
2024/03/23 12:05:14;;;;;;;6.87;4.10;;;19.90;1.00;;;;;;4476538;27;656410;-68
2024/03/23 12:08:19;;;;;;;6.65;3.42;;;19.50;1.00;;;;;;4427476;27;657128;-69
2024/03/23 12:11:09;;;;;;;2.20;1.20;;;19.60;1.00;;;;;;4447423;27;657245;-68
2024/03/23 12:13:55;;;;;;;3.43;1.70;;;19.90;1.00;;;;;;4446605;27;657209;-68
2024/03/23 12:16:42;;;;;;;4.13;2.87;;;20.20;1.00;;;;;;4467674;27;656798;-68
2024/03/23 12:19:29;;;;;;;4.73;2.67;;;19.60;1.00;;;;;;4479493;27;657069;-68
2024/03/23 12:22:16;;;;;;;3.50;2.00;;;19.80;1.00;;;;;;4474072;27;657013;-68
2024/03/23 12:25:02;;;;;;;6.00;2.70;;;19.90;1.00;;;;;;4455909;27;656642;-68
2024/03/23 12:27:51;;;;;;;2.30;1.50;;;19.30;1.00;;;;;;4477923;27;658074;-68
2024/03/23 12:30:39;;;;;;;5.07;2.37;;;20.40;1.00;;;;;;4451237;27;657352;-69
2024/03/23 12:33:26;;;;;;;4.63;2.60;;;20.30;1.00;;;;;;4480409;27;657463;-68
2024/03/23 12:36:12;;;;;;;6.67;2.30;;;20.30;1.00;;;;;;4454299;27;657035;-68
2024/03/23 12:39:00;;;;;;;3.60;2.20;;;20.60;1.00;;;;;;4475188;27;656923;-68
2024/03/23 12:41:46;;;;;;;4.63;2.17;;;20.00;1.00;;;;;;4457499;27;657742;-69
2024/03/23 12:44:35;;;;;;;7.70;2.07;;;19.60;1.00;;;;;;4474437;27;656904;-68
2024/03/23 12:47:21;;;;;;;3.33;2.27;;;19.50;1.00;;;;;;4452558;27;657128;-69
2024/03/23 12:50:09;;;;;;;6.60;2.43;;;19.80;1.00;;;;;;4479087;27;656341;-68
2024/03/23 12:52:56;;;;;;;4.43;2.50;;;19.90;1.00;;;;;;4474764;27;656633;-70
2024/03/23 12:55:43;;;;;;;6.27;2.57;;;19.70;1.00;;;;;;4447499;27;656770;-69
2024/03/23 12:58:30;;;;;;;2.53;1.80;;;20.00;1.00;;;;;;4479572;27;657285;-69
2024/03/23 13:01:19;;;;;;;3.70;2.20;;;20.00;1.00;;;;;;4467235;27;656606;-69
2024/03/23 13:04:06;;;;;;;4.17;2.60;;;20.00;1.00;;;;;;4432912;27;657165;-71
2024/03/23 13:06:53;;;;;;;3.60;2.10;;;19.90;1.00;;;;;;4353203;27;657128;-70
2024/03/23 13:09:40;;;;;;;6.20;2.60;;;19.40;1.00;;;;;;4370449;27;656218;-70
2024/03/23 13:12:26;;;;;;;2.70;1.37;;;20.10;1.00;;;;;;4363762;27;656496;-70
2024/03/23 13:15:16;;;;;;;4.50;1.77;;;20.40;1.00;;;;;;4370494;27;656194;-69
2024/03/23 13:18:04;;;;;;;8.33;2.40;;;20.10;1.00;;;;;;4442135;27;657902;-69
2024/03/23 13:20:51;;;;;;;4.33;1.87;;;20.00;1.00;;;;;;4462722;27;656741;-69
2024/03/23 13:23:41;;;;;;;4.80;1.90;;;20.10;1.00;;;;;;4440476;28;656815;-70
2024/03/23 13:26:28;;;;;;;2.87;2.00;;;20.10;1.00;;;;;;4448101;27;657130;-69
2024/03/23 13:29:14;;;;;;;2.90;1.50;;;20.50;1.00;;;;;;4470012;27;656821;-69
2024/03/23 13:32:02;;;;;;;4.13;2.07;;;20.40;1.00;;;;;;4467810;27;656397;-69
2024/03/23 13:34:50;;;;;;;2.80;1.80;;;19.90;1.00;;;;;;4453008;27;656839;-70
2024/03/23 13:37:37;;;;;;;4.18;2.00;;;20.60;1.00;;;;;;4450243;27;656918;-69
2024/03/23 13:40:24;;;;;;;3.20;1.63;;;20.90;1.00;;;;;;4474977;27;656916;-70
2024/03/23 13:43:11;;;;;;;2.57;1.40;;;19.80;1.00;;;;;;4465470;27;657046;-69
2024/03/23 13:45:58;;;;;;;2.87;1.60;;;19.00;1.00;;;;;;4447953;27;657167;-69
2024/03/23 13:48:46;;;;;;;3.17;1.80;;;18.70;1.00;;;;;;4473230;27;657624;-69
2024/03/23 13:51:33;;;;;;;2.57;1.43;;;18.50;1.00;;;;;;4448856;27;656824;-68
2024/03/23 13:54:21;;;;;;;2.70;1.53;;;18.30;1.00;;;;;;4476902;27;656692;-67
2024/03/23 13:57:07;;;;;;;5.33;2.33;;;18.10;1.00;;;;;;4459006;27;656649;-68
2024/03/23 13:59:54;;;;;;;7.57;2.47;;;18.10;1.00;;;;;;4473725;27;656436;-67
2024/03/23 14:02:40;;;;;;;3.83;1.77;;;18.00;1.00;;;;;;4474762;27;657003;-67
2024/03/23 14:05:27;;;;;;;5.00;2.50;;;17.90;1.00;;;;;;4394555;27;656484;-68
2024/03/23 14:08:15;;;;;;;5.57;2.23;;;17.80;1.00;;;;;;4465918;27;657203;-68
2024/03/23 14:11:04;;;;;;;6.13;1.90;;;17.80;1.00;;;;;;4459277;27;656867;-67
2024/03/23 14:13:50;;;;;;;7.53;2.33;;;17.70;1.00;;;;;;4471837;27;656778;-67
2024/03/23 14:16:37;;;;;;;3.87;2.20;;;17.60;1.00;;;;;;4452110;27;657193;-67
2024/03/23 14:19:24;;;;;;;11.47;1.83;;;17.60;1.00;;;;;;4473179;27;657785;-67